sensor_id;sensor_type;location;lat;lon;timestamp;P1;durP1;ratioP1;P2;durP2;ratioP2
49890;SDS011;35780;55.568;37.492;2023-04-03T00:00:52;15.60;;;8.93;;
49890;SDS011;35780;55.568;37.492;2023-04-03T00:03:18;14.73;;;8.73;;
49890;SDS011;35780;55.568;37.492;2023-04-03T00:05:44;14.23;;;8.95;;
49890;SDS011;35780;55.568;37.492;2023-04-03T00:08:10;14.65;;;9.32;;
49890;SDS011;35780;55.568;37.492;2023-04-03T00:10:36;14.63;;;9.23;;
49890;SDS011;35780;55.568;37.492;2023-04-03T00:13:05;15.73;;;9.60;;
49890;SDS011;35780;55.568;37.492;2023-04-03T00:15:32;15.88;;;9.63;;
49890;SDS011;35780;55.568;37.492;2023-04-03T00:17:57;13.80;;;9.18;;
49890;SDS011;35780;55.568;37.492;2023-04-03T00:20:23;15.50;;;9.00;;
49890;SDS011;35780;55.568;37.492;2023-04-03T00:22:48;16.60;;;9.93;;
49890;SDS011;35780;55.568;37.492;2023-04-03T00:25:14;14.75;;;9.18;;
49890;SDS011;35780;55.568;37.492;2023-04-03T00:27:40;16.77;;;9.23;;
49890;SDS011;35780;55.568;37.492;2023-04-03T00:30:07;15.35;;;9.13;;
49890;SDS011;35780;55.568;37.492;2023-04-03T00:32:34;14.85;;;9.35;;
49890;SDS011;35780;55.568;37.492;2023-04-03T00:35:00;16.77;;;9.65;;
49890;SDS011;35780;55.568;37.492;2023-04-03T00:37:25;15.68;;;9.77;;
49890;SDS011;35780;55.568;37.492;2023-04-03T00:39:51;23.95;;;9.82;;
49890;SDS011;35780;55.568;37.492;2023-04-03T00:42:16;12.95;;;8.60;;
49890;SDS011;35780;55.568;37.492;2023-04-03T00:47:09;20.10;;;9.35;;
49890;SDS011;35780;55.568;37.492;2023-04-03T00:49:36;17.30;;;9.15;;
49890;SDS011;35780;55.568;37.492;2023-04-03T00:52:03;13.95;;;9.35;;
49890;SDS011;35780;55.568;37.492;2023-04-03T00:54:31;18.83;;;10.57;;
49890;SDS011;35780;55.568;37.492;2023-04-03T00:56:57;17.02;;;10.13;;
49890;SDS011;35780;55.568;37.492;2023-04-03T00:59:24;16.20;;;8.93;;
49890;SDS011;35780;55.568;37.492;2023-04-03T01:02:02;12.68;;;8.63;;
49890;SDS011;35780;55.568;37.492;2023-04-03T01:04:29;15.43;;;9.13;;
49890;SDS011;35780;55.568;37.492;2023-04-03T01:07:08;24.98;;;11.38;;
49890;SDS011;35780;55.568;37.492;2023-04-03T01:09:34;14.00;;;8.75;;
49890;SDS011;35780;55.568;37.492;2023-04-03T01:14:45;20.17;;;8.98;;
49890;SDS011;35780;55.568;37.492;2023-04-03T01:19:54;16.42;;;9.70;;
49890;SDS011;35780;55.568;37.492;2023-04-03T01:25:27;18.20;;;9.57;;
49890;SDS011;35780;55.568;37.492;2023-04-03T01:27:53;21.98;;;9.73;;
49890;SDS011;35780;55.568;37.492;2023-04-03T01:30:19;21.05;;;10.10;;
49890;SDS011;35780;55.568;37.492;2023-04-03T01:32:46;16.35;;;9.02;;
49890;SDS011;35780;55.568;37.492;2023-04-03T01:35:12;21.15;;;9.90;;
49890;SDS011;35780;55.568;37.492;2023-04-03T01:37:38;13.70;;;9.02;;
49890;SDS011;35780;55.568;37.492;2023-04-03T01:40:03;17.23;;;9.52;;
49890;SDS011;35780;55.568;37.492;2023-04-03T01:42:30;14.55;;;9.57;;
49890;SDS011;35780;55.568;37.492;2023-04-03T01:44:56;22.25;;;9.20;;
49890;SDS011;35780;55.568;37.492;2023-04-03T01:47:22;22.75;;;9.43;;
49890;SDS011;35780;55.568;37.492;2023-04-03T01:49:47;15.10;;;8.73;;
49890;SDS011;35780;55.568;37.492;2023-04-03T01:52:13;17.58;;;9.77;;
49890;SDS011;35780;55.568;37.492;2023-04-03T01:54:38;16.50;;;9.32;;
49890;SDS011;35780;55.568;37.492;2023-04-03T01:57:04;18.25;;;9.55;;
49890;SDS011;35780;55.568;37.492;2023-04-03T01:59:29;17.55;;;9.63;;
49890;SDS011;35780;55.568;37.492;2023-04-03T02:01:55;15.30;;;10.40;;
49890;SDS011;35780;55.568;37.492;2023-04-03T02:04:20;13.52;;;9.65;;
49890;SDS011;35780;55.568;37.492;2023-04-03T02:06:46;13.80;;;9.23;;
49890;SDS011;35780;55.568;37.492;2023-04-03T02:09:11;21.55;;;9.55;;
49890;SDS011;35780;55.568;37.492;2023-04-03T02:11:37;21.80;;;8.77;;
49890;SDS011;35780;55.568;37.492;2023-04-03T02:14:02;18.08;;;9.57;;
49890;SDS011;35780;55.568;37.492;2023-04-03T02:16:28;15.65;;;9.27;;
49890;SDS011;35780;55.568;37.492;2023-04-03T02:18:54;16.70;;;8.45;;
49890;SDS011;35780;55.568;37.492;2023-04-03T02:21:19;18.80;;;10.23;;
49890;SDS011;35780;55.568;37.492;2023-04-03T02:23:45;15.27;;;9.45;;
49890;SDS011;35780;55.568;37.492;2023-04-03T02:26:12;17.85;;;10.05;;
49890;SDS011;35780;55.568;37.492;2023-04-03T02:28:38;18.60;;;10.27;;
49890;SDS011;35780;55.568;37.492;2023-04-03T02:31:05;18.25;;;9.80;;
49890;SDS011;35780;55.568;37.492;2023-04-03T02:33:34;18.75;;;10.05;;
49890;SDS011;35780;55.568;37.492;2023-04-03T02:36:01;20.23;;;9.95;;
49890;SDS011;35780;55.568;37.492;2023-04-03T02:38:28;17.33;;;10.15;;
49890;SDS011;35780;55.568;37.492;2023-04-03T02:40:53;14.82;;;8.13;;
49890;SDS011;35780;55.568;37.492;2023-04-03T02:43:25;13.40;;;9.57;;
49890;SDS011;35780;55.568;37.492;2023-04-03T02:45:50;15.73;;;8.52;;
49890;SDS011;35780;55.568;37.492;2023-04-03T02:48:16;12.23;;;8.85;;
49890;SDS011;35780;55.568;37.492;2023-04-03T02:50:41;19.42;;;9.43;;
49890;SDS011;35780;55.568;37.492;2023-04-03T02:53:07;17.40;;;8.77;;
49890;SDS011;35780;55.568;37.492;2023-04-03T02:55:32;17.30;;;8.93;;
49890;SDS011;35780;55.568;37.492;2023-04-03T02:57:58;13.73;;;9.32;;
49890;SDS011;35780;55.568;37.492;2023-04-03T03:00:23;19.75;;;8.52;;
49890;SDS011;35780;55.568;37.492;2023-04-03T03:02:49;16.23;;;9.40;;
49890;SDS011;35780;55.568;37.492;2023-04-03T03:05:14;13.18;;;9.10;;
49890;SDS011;35780;55.568;37.492;2023-04-03T03:07:40;17.58;;;9.23;;
49890;SDS011;35780;55.568;37.492;2023-04-03T03:10:06;15.38;;;9.00;;
49890;SDS011;35780;55.568;37.492;2023-04-03T03:12:31;14.60;;;9.75;;
49890;SDS011;35780;55.568;37.492;2023-04-03T03:14:57;16.05;;;9.50;;
49890;SDS011;35780;55.568;37.492;2023-04-03T03:17:22;14.55;;;9.35;;
49890;SDS011;35780;55.568;37.492;2023-04-03T03:19:48;15.13;;;8.98;;
49890;SDS011;35780;55.568;37.492;2023-04-03T03:22:13;16.27;;;9.07;;
49890;SDS011;35780;55.568;37.492;2023-04-03T03:24:41;21.10;;;9.82;;
49890;SDS011;35780;55.568;37.492;2023-04-03T03:27:06;18.58;;;10.75;;
49890;SDS011;35780;55.568;37.492;2023-04-03T03:29:32;19.30;;;8.85;;
49890;SDS011;35780;55.568;37.492;2023-04-03T03:31:57;18.55;;;9.50;;
49890;SDS011;35780;55.568;37.492;2023-04-03T03:34:22;18.35;;;10.25;;
49890;SDS011;35780;55.568;37.492;2023-04-03T03:36:48;15.07;;;9.32;;
49890;SDS011;35780;55.568;37.492;2023-04-03T03:39:13;17.10;;;9.88;;
49890;SDS011;35780;55.568;37.492;2023-04-03T03:41:39;20.05;;;10.98;;
49890;SDS011;35780;55.568;37.492;2023-04-03T03:44:05;15.95;;;10.13;;
49890;SDS011;35780;55.568;37.492;2023-04-03T03:46:30;24.20;;;9.85;;
49890;SDS011;35780;55.568;37.492;2023-04-03T03:48:56;21.65;;;11.00;;
49890;SDS011;35780;55.568;37.492;2023-04-03T03:51:21;19.60;;;10.13;;
49890;SDS011;35780;55.568;37.492;2023-04-03T03:53:47;21.35;;;11.23;;
49890;SDS011;35780;55.568;37.492;2023-04-03T03:56:12;21.35;;;10.90;;
49890;SDS011;35780;55.568;37.492;2023-04-03T03:58:38;19.77;;;11.40;;
49890;SDS011;35780;55.568;37.492;2023-04-03T04:01:04;20.08;;;10.77;;
49890;SDS011;35780;55.568;37.492;2023-04-03T04:03:30;24.33;;;11.18;;
49890;SDS011;35780;55.568;37.492;2023-04-03T04:05:56;29.55;;;12.10;;
49890;SDS011;35780;55.568;37.492;2023-04-03T04:08:22;23.35;;;11.50;;
49890;SDS011;35780;55.568;37.492;2023-04-03T04:10:48;20.55;;;11.32;;
49890;SDS011;35780;55.568;37.492;2023-04-03T04:13:13;24.27;;;12.95;;
49890;SDS011;35780;55.568;37.492;2023-04-03T04:15:39;27.58;;;13.13;;
49890;SDS011;35780;55.568;37.492;2023-04-03T04:18:05;26.70;;;12.90;;
49890;SDS011;35780;55.568;37.492;2023-04-03T04:20:31;21.02;;;11.75;;
49890;SDS011;35780;55.568;37.492;2023-04-03T04:22:56;22.73;;;13.68;;
49890;SDS011;35780;55.568;37.492;2023-04-03T04:25:22;25.63;;;13.10;;
49890;SDS011;35780;55.568;37.492;2023-04-03T04:27:47;31.88;;;13.98;;
49890;SDS011;35780;55.568;37.492;2023-04-03T04:30:13;23.35;;;12.82;;
49890;SDS011;35780;55.568;37.492;2023-04-03T04:32:39;29.33;;;13.18;;
49890;SDS011;35780;55.568;37.492;2023-04-03T04:35:05;28.95;;;14.27;;
49890;SDS011;35780;55.568;37.492;2023-04-03T04:37:30;28.05;;;14.52;;
49890;SDS011;35780;55.568;37.492;2023-04-03T04:39:56;24.48;;;12.85;;
49890;SDS011;35780;55.568;37.492;2023-04-03T04:42:22;33.17;;;14.50;;
49890;SDS011;35780;55.568;37.492;2023-04-03T04:44:47;21.20;;;12.90;;
49890;SDS011;35780;55.568;37.492;2023-04-03T04:47:13;25.52;;;14.82;;
49890;SDS011;35780;55.568;37.492;2023-04-03T04:49:38;31.92;;;13.57;;
49890;SDS011;35780;55.568;37.492;2023-04-03T04:52:04;29.15;;;13.85;;
49890;SDS011;35780;55.568;37.492;2023-04-03T04:54:30;20.25;;;13.35;;
49890;SDS011;35780;55.568;37.492;2023-04-03T04:56:55;27.48;;;13.73;;
49890;SDS011;35780;55.568;37.492;2023-04-03T04:59:21;20.65;;;13.15;;
49890;SDS011;35780;55.568;37.492;2023-04-03T05:01:46;22.55;;;13.82;;
49890;SDS011;35780;55.568;37.492;2023-04-03T05:04:12;20.02;;;12.45;;
49890;SDS011;35780;55.568;37.492;2023-04-03T05:06:38;28.00;;;14.48;;
49890;SDS011;35780;55.568;37.492;2023-04-03T05:09:04;24.77;;;13.50;;
49890;SDS011;35780;55.568;37.492;2023-04-03T05:11:29;26.13;;;14.52;;
49890;SDS011;35780;55.568;37.492;2023-04-03T05:13:55;25.58;;;12.52;;
49890;SDS011;35780;55.568;37.492;2023-04-03T05:16:20;26.63;;;12.90;;
49890;SDS011;35780;55.568;37.492;2023-04-03T05:18:46;24.65;;;12.70;;
49890;SDS011;35780;55.568;37.492;2023-04-03T05:21:11;24.67;;;13.20;;
49890;SDS011;35780;55.568;37.492;2023-04-03T05:23:37;26.00;;;12.95;;
49890;SDS011;35780;55.568;37.492;2023-04-03T05:26:02;27.30;;;14.75;;
49890;SDS011;35780;55.568;37.492;2023-04-03T05:28:28;23.23;;;14.52;;
49890;SDS011;35780;55.568;37.492;2023-04-03T05:30:54;25.45;;;13.43;;
49890;SDS011;35780;55.568;37.492;2023-04-03T05:33:24;21.00;;;13.48;;
49890;SDS011;35780;55.568;37.492;2023-04-03T05:35:51;25.10;;;12.88;;
49890;SDS011;35780;55.568;37.492;2023-04-03T05:38:17;23.10;;;12.30;;
49890;SDS011;35780;55.568;37.492;2023-04-03T05:40:43;23.10;;;12.93;;
49890;SDS011;35780;55.568;37.492;2023-04-03T05:43:09;23.10;;;13.85;;
49890;SDS011;35780;55.568;37.492;2023-04-03T05:45:35;21.42;;;12.38;;
49890;SDS011;35780;55.568;37.492;2023-04-03T05:48:01;24.13;;;13.70;;
49890;SDS011;35780;55.568;37.492;2023-04-03T05:50:26;25.83;;;13.63;;
49890;SDS011;35780;55.568;37.492;2023-04-03T05:52:52;30.00;;;13.80;;
49890;SDS011;35780;55.568;37.492;2023-04-03T05:55:20;20.75;;;12.80;;
49890;SDS011;35780;55.568;37.492;2023-04-03T05:57:46;26.10;;;12.70;;
49890;SDS011;35780;55.568;37.492;2023-04-03T06:00:12;17.70;;;11.50;;
49890;SDS011;35780;55.568;37.492;2023-04-03T06:02:40;20.50;;;12.50;;
49890;SDS011;35780;55.568;37.492;2023-04-03T06:05:07;35.75;;;13.02;;
49890;SDS011;35780;55.568;37.492;2023-04-03T06:07:33;20.13;;;12.45;;
49890;SDS011;35780;55.568;37.492;2023-04-03T06:09:59;21.77;;;13.13;;
49890;SDS011;35780;55.568;37.492;2023-04-03T06:12:26;20.67;;;11.50;;
49890;SDS011;35780;55.568;37.492;2023-04-03T06:14:53;24.77;;;12.82;;
49890;SDS011;35780;55.568;37.492;2023-04-03T06:17:19;22.40;;;11.32;;
49890;SDS011;35780;55.568;37.492;2023-04-03T06:19:45;20.45;;;12.20;;
49890;SDS011;35780;55.568;37.492;2023-04-03T06:22:11;20.08;;;12.05;;
49890;SDS011;35780;55.568;37.492;2023-04-03T06:24:37;23.38;;;12.45;;
49890;SDS011;35780;55.568;37.492;2023-04-03T06:27:03;21.95;;;13.05;;
49890;SDS011;35780;55.568;37.492;2023-04-03T06:29:29;19.15;;;12.48;;
49890;SDS011;35780;55.568;37.492;2023-04-03T06:31:55;33.63;;;14.18;;
49890;SDS011;35780;55.568;37.492;2023-04-03T06:34:20;24.17;;;12.02;;
49890;SDS011;35780;55.568;37.492;2023-04-03T06:36:46;26.48;;;12.38;;
49890;SDS011;35780;55.568;37.492;2023-04-03T06:39:16;23.13;;;11.73;;
49890;SDS011;35780;55.568;37.492;2023-04-03T06:41:42;30.30;;;12.65;;
49890;SDS011;35780;55.568;37.492;2023-04-03T06:44:08;24.63;;;11.93;;
49890;SDS011;35780;55.568;37.492;2023-04-03T06:46:36;24.08;;;12.57;;
49890;SDS011;35780;55.568;37.492;2023-04-03T06:49:02;20.52;;;11.45;;
49890;SDS011;35780;55.568;37.492;2023-04-03T06:51:28;24.75;;;12.27;;
49890;SDS011;35780;55.568;37.492;2023-04-03T06:53:56;15.13;;;11.07;;
49890;SDS011;35780;55.568;37.492;2023-04-03T06:56:22;19.35;;;11.48;;
49890;SDS011;35780;55.568;37.492;2023-04-03T06:58:48;19.63;;;12.80;;
49890;SDS011;35780;55.568;37.492;2023-04-03T07:01:16;19.40;;;12.25;;
49890;SDS011;35780;55.568;37.492;2023-04-03T07:03:43;21.55;;;12.80;;
49890;SDS011;35780;55.568;37.492;2023-04-03T07:06:09;25.58;;;13.18;;
49890;SDS011;35780;55.568;37.492;2023-04-03T07:08:36;25.92;;;12.27;;
49890;SDS011;35780;55.568;37.492;2023-04-03T07:11:02;20.52;;;12.35;;
49890;SDS011;35780;55.568;37.492;2023-04-03T07:13:28;18.15;;;11.00;;
49890;SDS011;35780;55.568;37.492;2023-04-03T07:15:53;18.33;;;10.68;;
49890;SDS011;35780;55.568;37.492;2023-04-03T07:18:19;23.08;;;12.85;;
49890;SDS011;35780;55.568;37.492;2023-04-03T07:20:46;21.65;;;11.05;;
49890;SDS011;35780;55.568;37.492;2023-04-03T07:23:12;19.38;;;10.63;;
49890;SDS011;35780;55.568;37.492;2023-04-03T07:25:42;24.40;;;12.32;;
49890;SDS011;35780;55.568;37.492;2023-04-03T07:28:12;17.90;;;9.88;;
49890;SDS011;35780;55.568;37.492;2023-04-03T07:30:51;18.08;;;10.65;;
49890;SDS011;35780;55.568;37.492;2023-04-03T07:33:18;18.70;;;10.40;;
49890;SDS011;35780;55.568;37.492;2023-04-03T07:35:45;17.17;;;9.02;;
49890;SDS011;35780;55.568;37.492;2023-04-03T07:38:11;18.40;;;9.75;;
49890;SDS011;35780;55.568;37.492;2023-04-03T07:40:37;16.95;;;9.38;;
49890;SDS011;35780;55.568;37.492;2023-04-03T07:43:03;20.23;;;11.00;;
49890;SDS011;35780;55.568;37.492;2023-04-03T07:45:30;19.52;;;10.10;;
49890;SDS011;35780;55.568;37.492;2023-04-03T07:47:56;20.88;;;10.20;;
49890;SDS011;35780;55.568;37.492;2023-04-03T07:50:21;15.68;;;9.60;;
49890;SDS011;35780;55.568;37.492;2023-04-03T07:52:47;19.23;;;10.00;;
49890;SDS011;35780;55.568;37.492;2023-04-03T07:55:13;21.40;;;11.40;;
49890;SDS011;35780;55.568;37.492;2023-04-03T07:57:39;26.92;;;11.27;;
49890;SDS011;35780;55.568;37.492;2023-04-03T08:00:05;20.63;;;11.98;;
49890;SDS011;35780;55.568;37.492;2023-04-03T08:02:31;29.30;;;14.23;;
49890;SDS011;35780;55.568;37.492;2023-04-03T08:05:16;18.45;;;11.82;;
49890;SDS011;35780;55.568;37.492;2023-04-03T08:08:04;24.30;;;12.48;;
49890;SDS011;35780;55.568;37.492;2023-04-03T08:10:30;28.30;;;13.65;;
49890;SDS011;35780;55.568;37.492;2023-04-03T08:12:55;25.20;;;12.50;;
49890;SDS011;35780;55.568;37.492;2023-04-03T08:15:21;26.00;;;13.38;;
49890;SDS011;35780;55.568;37.492;2023-04-03T08:17:46;21.33;;;12.20;;
49890;SDS011;35780;55.568;37.492;2023-04-03T08:20:12;31.13;;;13.50;;
49890;SDS011;35780;55.568;37.492;2023-04-03T08:22:38;24.88;;;12.98;;
49890;SDS011;35780;55.568;37.492;2023-04-03T08:25:03;25.25;;;13.25;;
49890;SDS011;35780;55.568;37.492;2023-04-03T08:27:29;23.33;;;12.88;;
49890;SDS011;35780;55.568;37.492;2023-04-03T08:29:55;31.27;;;12.20;;
49890;SDS011;35780;55.568;37.492;2023-04-03T08:32:22;22.30;;;13.25;;
49890;SDS011;35780;55.568;37.492;2023-04-03T08:34:48;25.67;;;12.85;;
49890;SDS011;35780;55.568;37.492;2023-04-03T08:37:13;30.42;;;13.18;;
49890;SDS011;35780;55.568;37.492;2023-04-03T08:39:41;24.05;;;13.05;;
49890;SDS011;35780;55.568;37.492;2023-04-03T08:42:19;23.67;;;12.70;;
49890;SDS011;35780;55.568;37.492;2023-04-03T08:44:55;25.73;;;12.82;;
49890;SDS011;35780;55.568;37.492;2023-04-03T08:47:38;26.20;;;13.57;;
49890;SDS011;35780;55.568;37.492;2023-04-03T08:50:12;25.33;;;13.35;;
49890;SDS011;35780;55.568;37.492;2023-04-03T08:52:42;21.73;;;11.05;;
49890;SDS011;35780;55.568;37.492;2023-04-03T08:55:30;39.80;;;13.50;;
49890;SDS011;35780;55.568;37.492;2023-04-03T08:58:02;26.30;;;12.40;;
49890;SDS011;35780;55.568;37.492;2023-04-03T09:00:40;27.85;;;13.82;;
49890;SDS011;35780;55.568;37.492;2023-04-03T09:03:12;26.42;;;13.18;;
49890;SDS011;35780;55.568;37.492;2023-04-03T09:08:24;24.83;;;13.18;;
49890;SDS011;35780;55.568;37.492;2023-04-03T09:10:58;24.38;;;13.35;;
49890;SDS011;35780;55.568;37.492;2023-04-03T09:13:41;21.20;;;13.65;;
49890;SDS011;35780;55.568;37.492;2023-04-03T09:21:46;23.55;;;13.93;;
49890;SDS011;35780;55.568;37.492;2023-04-03T09:24:12;24.13;;;13.05;;
49890;SDS011;35780;55.568;37.492;2023-04-03T09:29:27;32.53;;;14.30;;
49890;SDS011;35780;55.568;37.492;2023-04-03T09:31:56;26.42;;;13.00;;
49890;SDS011;35780;55.568;37.492;2023-04-03T09:34:26;24.95;;;11.32;;
49890;SDS011;35780;55.568;37.492;2023-04-03T09:37:02;18.33;;;9.80;;
49890;SDS011;35780;55.568;37.492;2023-04-03T09:39:32;18.83;;;9.32;;
49890;SDS011;35780;55.568;37.492;2023-04-03T09:42:22;17.15;;;9.15;;
49890;SDS011;35780;55.568;37.492;2023-04-03T09:44:56;21.63;;;10.95;;
49890;SDS011;35780;55.568;37.492;2023-04-03T09:47:28;18.52;;;9.93;;
49890;SDS011;35780;55.568;37.492;2023-04-03T09:52:42;16.88;;;10.15;;
49890;SDS011;35780;55.568;37.492;2023-04-03T09:55:17;15.43;;;9.38;;
49890;SDS011;35780;55.568;37.492;2023-04-03T09:57:46;31.17;;;9.40;;
49890;SDS011;35780;55.568;37.492;2023-04-03T10:00:25;23.75;;;9.70;;
49890;SDS011;35780;55.568;37.492;2023-04-03T10:02:54;22.38;;;10.10;;
49890;SDS011;35780;55.568;37.492;2023-04-03T10:05:27;18.40;;;9.87;;
49890;SDS011;35780;55.568;37.492;2023-04-03T10:08:11;23.65;;;10.52;;
49890;SDS011;35780;55.568;37.492;2023-04-03T10:10:46;23.48;;;10.00;;
49890;SDS011;35780;55.568;37.492;2023-04-03T10:13:17;24.27;;;12.75;;
49890;SDS011;35780;55.568;37.492;2023-04-03T10:15:48;23.60;;;12.65;;
49890;SDS011;35780;55.568;37.492;2023-04-03T10:20:49;21.77;;;12.25;;
49890;SDS011;35780;55.568;37.492;2023-04-03T10:29:16;29.27;;;13.10;;
49890;SDS011;35780;55.568;37.492;2023-04-03T10:31:48;26.98;;;12.00;;
49890;SDS011;35780;55.568;37.492;2023-04-03T10:34:24;20.10;;;10.82;;
49890;SDS011;35780;55.568;37.492;2023-04-03T10:42:49;20.52;;;9.80;;
49890;SDS011;35780;55.568;37.492;2023-04-03T10:53:27;16.95;;;8.63;;
49890;SDS011;35780;55.568;37.492;2023-04-03T10:57:04;19.33;;;8.43;;
49890;SDS011;35780;55.568;37.492;2023-04-03T11:01:58;21.67;;;9.20;;
49890;SDS011;35780;55.568;37.492;2023-04-03T11:04:27;21.83;;;10.10;;
49890;SDS011;35780;55.568;37.492;2023-04-03T11:07:02;20.45;;;10.82;;
49890;SDS011;35780;55.568;37.492;2023-04-03T11:09:31;31.15;;;13.40;;
49890;SDS011;35780;55.568;37.492;2023-04-03T11:12:03;25.33;;;13.70;;
49890;SDS011;35780;55.568;37.492;2023-04-03T11:14:32;28.90;;;14.35;;
49890;SDS011;35780;55.568;37.492;2023-04-03T11:19:45;34.08;;;12.98;;
49890;SDS011;35780;55.568;37.492;2023-04-03T11:22:18;23.65;;;12.52;;
49890;SDS011;35780;55.568;37.492;2023-04-03T11:24:57;23.67;;;12.05;;
49890;SDS011;35780;55.568;37.492;2023-04-03T11:27:40;17.38;;;11.57;;
49890;SDS011;35780;55.568;37.492;2023-04-03T11:30:15;21.55;;;13.13;;
49890;SDS011;35780;55.568;37.492;2023-04-03T11:35:45;26.83;;;12.20;;
49890;SDS011;35780;55.568;37.492;2023-04-03T11:38:34;19.87;;;11.40;;
49890;SDS011;35780;55.568;37.492;2023-04-03T11:41:04;24.17;;;12.43;;
49890;SDS011;35780;55.568;37.492;2023-04-03T11:43:32;24.30;;;11.18;;
49890;SDS011;35780;55.568;37.492;2023-04-03T11:46:05;24.35;;;12.52;;
49890;SDS011;35780;55.568;37.492;2023-04-03T11:51:00;19.73;;;10.93;;
49890;SDS011;35780;55.568;37.492;2023-04-03T11:53:45;20.08;;;10.63;;
49890;SDS011;35780;55.568;37.492;2023-04-03T12:01:45;16.40;;;9.18;;
49890;SDS011;35780;55.568;37.492;2023-04-03T12:04:12;16.00;;;7.18;;
49890;SDS011;35780;55.568;37.492;2023-04-03T12:12:22;13.48;;;6.88;;
49890;SDS011;35780;55.568;37.492;2023-04-03T12:15:16;9.65;;;5.95;;
49890;SDS011;35780;55.568;37.492;2023-04-03T12:17:44;12.38;;;6.75;;
49890;SDS011;35780;55.568;37.492;2023-04-03T12:26:00;16.42;;;7.45;;
49890;SDS011;35780;55.568;37.492;2023-04-03T12:28:30;12.70;;;6.53;;
49890;SDS011;35780;55.568;37.492;2023-04-03T12:31:01;9.48;;;5.90;;
49890;SDS011;35780;55.568;37.492;2023-04-03T12:36:07;18.48;;;7.18;;
49890;SDS011;35780;55.568;37.492;2023-04-03T12:46:51;10.65;;;5.63;;
49890;SDS011;35780;55.568;37.492;2023-04-03T12:49:31;12.05;;;5.93;;
49890;SDS011;35780;55.568;37.492;2023-04-03T12:52:01;21.77;;;6.97;;
49890;SDS011;35780;55.568;37.492;2023-04-03T12:54:38;17.50;;;6.60;;
49890;SDS011;35780;55.568;37.492;2023-04-03T12:59:35;18.27;;;6.53;;
49890;SDS011;35780;55.568;37.492;2023-04-03T13:02:07;11.80;;;6.35;;
49890;SDS011;35780;55.568;37.492;2023-04-03T13:04:41;16.30;;;6.68;;
49890;SDS011;35780;55.568;37.492;2023-04-03T13:07:17;26.10;;;7.07;;
49890;SDS011;35780;55.568;37.492;2023-04-03T13:09:44;19.58;;;6.53;;
49890;SDS011;35780;55.568;37.492;2023-04-03T13:12:20;18.23;;;7.53;;
49890;SDS011;35780;55.568;37.492;2023-04-03T13:14:54;14.38;;;6.38;;
49890;SDS011;35780;55.568;37.492;2023-04-03T13:17:25;27.20;;;7.57;;
49890;SDS011;35780;55.568;37.492;2023-04-03T13:19:51;13.93;;;7.03;;
49890;SDS011;35780;55.568;37.492;2023-04-03T13:24:56;13.98;;;5.85;;
49890;SDS011;35780;55.568;37.492;2023-04-03T13:27:23;15.05;;;6.80;;
49890;SDS011;35780;55.568;37.492;2023-04-03T13:29:54;21.88;;;7.25;;
49890;SDS011;35780;55.568;37.492;2023-04-03T13:32:23;19.83;;;6.80;;
49890;SDS011;35780;55.568;37.492;2023-04-03T13:34:50;17.27;;;7.00;;
49890;SDS011;35780;55.568;37.492;2023-04-03T13:37:22;16.60;;;7.82;;
49890;SDS011;35780;55.568;37.492;2023-04-03T13:42:45;12.80;;;7.70;;
49890;SDS011;35780;55.568;37.492;2023-04-03T13:45:18;18.75;;;7.97;;
49890;SDS011;35780;55.568;37.492;2023-04-03T13:47:45;15.77;;;8.65;;
49890;SDS011;35780;55.568;37.492;2023-04-03T13:50:20;21.25;;;7.68;;
49890;SDS011;35780;55.568;37.492;2023-04-03T13:52:48;17.08;;;7.82;;
49890;SDS011;35780;55.568;37.492;2023-04-03T13:57:49;18.33;;;7.78;;
49890;SDS011;35780;55.568;37.492;2023-04-03T14:00:31;16.33;;;9.25;;
49890;SDS011;35780;55.568;37.492;2023-04-03T14:03:18;18.20;;;8.00;;
49890;SDS011;35780;55.568;37.492;2023-04-03T14:05:48;14.40;;;8.23;;
49890;SDS011;35780;55.568;37.492;2023-04-03T14:08:13;18.05;;;8.57;;
49890;SDS011;35780;55.568;37.492;2023-04-03T14:10:39;19.23;;;8.93;;
49890;SDS011;35780;55.568;37.492;2023-04-03T14:13:05;15.77;;;9.20;;
49890;SDS011;35780;55.568;37.492;2023-04-03T14:15:31;23.55;;;9.25;;
49890;SDS011;35780;55.568;37.492;2023-04-03T14:17:57;17.45;;;8.35;;
49890;SDS011;35780;55.568;37.492;2023-04-03T14:20:24;17.38;;;7.97;;
49890;SDS011;35780;55.568;37.492;2023-04-03T14:22:51;20.05;;;8.50;;
49890;SDS011;35780;55.568;37.492;2023-04-03T14:25:18;13.32;;;7.72;;
49890;SDS011;35780;55.568;37.492;2023-04-03T14:27:45;20.27;;;8.20;;
49890;SDS011;35780;55.568;37.492;2023-04-03T14:30:16;14.57;;;7.90;;
49890;SDS011;35780;55.568;37.492;2023-04-03T14:35:10;17.50;;;7.38;;
49890;SDS011;35780;55.568;37.492;2023-04-03T14:37:36;14.15;;;7.43;;
49890;SDS011;35780;55.568;37.492;2023-04-03T14:40:02;17.88;;;6.82;;
49890;SDS011;35780;55.568;37.492;2023-04-03T14:42:30;15.68;;;6.55;;
49890;SDS011;35780;55.568;37.492;2023-04-03T14:44:58;16.10;;;6.75;;
49890;SDS011;35780;55.568;37.492;2023-04-03T14:47:26;14.55;;;7.03;;
49890;SDS011;35780;55.568;37.492;2023-04-03T14:49:53;11.73;;;6.78;;
49890;SDS011;35780;55.568;37.492;2023-04-03T14:54:52;13.57;;;7.10;;
49890;SDS011;35780;55.568;37.492;2023-04-03T14:57:27;23.13;;;7.95;;
49890;SDS011;35780;55.568;37.492;2023-04-03T14:59:53;17.10;;;6.65;;
49890;SDS011;35780;55.568;37.492;2023-04-03T15:02:36;13.50;;;7.20;;
49890;SDS011;35780;55.568;37.492;2023-04-03T15:05:05;16.75;;;7.40;;
49890;SDS011;35780;55.568;37.492;2023-04-03T15:07:54;13.75;;;6.72;;
49890;SDS011;35780;55.568;37.492;2023-04-03T15:10:22;15.05;;;7.13;;
49890;SDS011;35780;55.568;37.492;2023-04-03T15:12:52;23.48;;;8.25;;
49890;SDS011;35780;55.568;37.492;2023-04-03T15:15:19;17.35;;;7.85;;
49890;SDS011;35780;55.568;37.492;2023-04-03T15:17:46;14.00;;;7.13;;
49890;SDS011;35780;55.568;37.492;2023-04-03T15:20:20;18.92;;;6.78;;
49890;SDS011;35780;55.568;37.492;2023-04-03T15:22:47;17.35;;;7.15;;
49890;SDS011;35780;55.568;37.492;2023-04-03T15:25:13;19.33;;;7.75;;
49890;SDS011;35780;55.568;37.492;2023-04-03T15:27:39;15.80;;;7.22;;
49890;SDS011;35780;55.568;37.492;2023-04-03T15:30:06;27.33;;;7.65;;
49890;SDS011;35780;55.568;37.492;2023-04-03T15:32:32;16.35;;;6.35;;
49890;SDS011;35780;55.568;37.492;2023-04-03T15:34:59;13.95;;;7.13;;
49890;SDS011;35780;55.568;37.492;2023-04-03T15:37:25;15.00;;;8.43;;
49890;SDS011;35780;55.568;37.492;2023-04-03T15:39:51;17.15;;;7.80;;
49890;SDS011;35780;55.568;37.492;2023-04-03T15:42:16;21.58;;;7.32;;
49890;SDS011;35780;55.568;37.492;2023-04-03T15:44:42;17.15;;;7.93;;
49890;SDS011;35780;55.568;37.492;2023-04-03T15:47:07;16.67;;;7.25;;
49890;SDS011;35780;55.568;37.492;2023-04-03T15:49:33;23.63;;;9.23;;
49890;SDS011;35780;55.568;37.492;2023-04-03T15:51:59;17.25;;;7.97;;
49890;SDS011;35780;55.568;37.492;2023-04-03T15:54:25;18.08;;;8.70;;
49890;SDS011;35780;55.568;37.492;2023-04-03T15:56:51;23.17;;;10.52;;
49890;SDS011;35780;55.568;37.492;2023-04-03T15:59:17;20.55;;;9.05;;
49890;SDS011;35780;55.568;37.492;2023-04-03T16:01:42;14.73;;;8.35;;
49890;SDS011;35780;55.568;37.492;2023-04-03T16:04:08;14.93;;;6.88;;